sensor_id;sensor_type;location;lat;lon;timestamp;P1;durP1;ratioP1;P2;durP2;ratioP2
79308;SDS011;68767;53.078;7.386;2023-06-10T00:00:29;10.05;;;4.03;;
79308;SDS011;68767;53.078;7.386;2023-06-10T00:02:58;10.30;;;3.97;;
79308;SDS011;68767;53.078;7.386;2023-06-10T00:05:26;9.68;;;3.83;;
79308;SDS011;68767;53.078;7.386;2023-06-10T00:07:56;11.15;;;4.32;;
79308;SDS011;68767;53.078;7.386;2023-06-10T00:10:24;10.15;;;4.45;;
79308;SDS011;68767;53.078;7.386;2023-06-10T00:12:51;11.65;;;3.85;;
79308;SDS011;68767;53.078;7.386;2023-06-10T00:15:18;10.35;;;3.95;;
79308;SDS011;68767;53.078;7.386;2023-06-10T00:17:45;10.73;;;4.45;;
79308;SDS011;68767;53.078;7.386;2023-06-10T00:20:12;8.65;;;4.00;;
79308;SDS011;68767;53.078;7.386;2023-06-10T00:22:40;8.98;;;3.88;;
79308;SDS011;68767;53.078;7.386;2023-06-10T00:25:08;13.63;;;3.85;;
79308;SDS011;68767;53.078;7.386;2023-06-10T00:27:37;8.18;;;3.88;;
79308;SDS011;68767;53.078;7.386;2023-06-10T00:30:04;10.88;;;4.55;;
79308;SDS011;68767;53.078;7.386;2023-06-10T00:32:34;7.50;;;3.60;;
79308;SDS011;68767;53.078;7.386;2023-06-10T00:35:02;9.77;;;3.90;;
79308;SDS011;68767;53.078;7.386;2023-06-10T00:37:30;10.07;;;3.92;;
79308;SDS011;68767;53.078;7.386;2023-06-10T00:39:59;9.45;;;3.67;;
79308;SDS011;68767;53.078;7.386;2023-06-10T00:42:26;12.07;;;4.13;;
79308;SDS011;68767;53.078;7.386;2023-06-10T00:44:54;10.63;;;4.03;;
79308;SDS011;68767;53.078;7.386;2023-06-10T00:47:21;12.05;;;4.80;;
79308;SDS011;68767;53.078;7.386;2023-06-10T00:49:49;10.38;;;3.95;;
79308;SDS011;68767;53.078;7.386;2023-06-10T00:52:17;18.95;;;5.18;;
79308;SDS011;68767;53.078;7.386;2023-06-10T00:54:46;9.65;;;4.07;;
79308;SDS011;68767;53.078;7.386;2023-06-10T00:57:14;8.52;;;4.18;;
79308;SDS011;68767;53.078;7.386;2023-06-10T00:59:42;11.57;;;3.72;;
79308;SDS011;68767;53.078;7.386;2023-06-10T01:02:13;8.50;;;4.10;;
79308;SDS011;68767;53.078;7.386;2023-06-10T01:04:41;12.70;;;4.30;;
79308;SDS011;68767;53.078;7.386;2023-06-10T01:10:24;13.55;;;4.60;;
79308;SDS011;68767;53.078;7.386;2023-06-10T01:15:22;13.50;;;4.30;;
79308;SDS011;68767;53.078;7.386;2023-06-10T01:17:53;11.07;;;4.47;;
79308;SDS011;68767;53.078;7.386;2023-06-10T01:20:25;7.18;;;4.25;;
79308;SDS011;68767;53.078;7.386;2023-06-10T01:22:55;12.07;;;4.63;;
79308;SDS011;68767;53.078;7.386;2023-06-10T01:25:24;7.70;;;3.58;;
79308;SDS011;68767;53.078;7.386;2023-06-10T01:33:35;9.75;;;4.18;;
79308;SDS011;68767;53.078;7.386;2023-06-10T01:36:04;8.02;;;4.07;;
79308;SDS011;68767;53.078;7.386;2023-06-10T01:38:36;8.38;;;3.70;;
79308;SDS011;68767;53.078;7.386;2023-06-10T01:41:07;13.40;;;4.50;;
79308;SDS011;68767;53.078;7.386;2023-06-10T01:43:37;11.73;;;4.38;;
79308;SDS011;68767;53.078;7.386;2023-06-10T01:46:06;8.00;;;3.92;;
79308;SDS011;68767;53.078;7.386;2023-06-10T01:48:33;6.90;;;3.72;;
79308;SDS011;68767;53.078;7.386;2023-06-10T01:51:00;9.90;;;4.13;;
79308;SDS011;68767;53.078;7.386;2023-06-10T01:53:27;8.80;;;3.55;;
79308;SDS011;68767;53.078;7.386;2023-06-10T01:55:54;9.63;;;4.38;;
79308;SDS011;68767;53.078;7.386;2023-06-10T01:58:22;10.80;;;4.45;;
79308;SDS011;68767;53.078;7.386;2023-06-10T02:00:49;9.15;;;4.05;;
79308;SDS011;68767;53.078;7.386;2023-06-10T02:03:16;12.73;;;4.40;;
79308;SDS011;68767;53.078;7.386;2023-06-10T02:05:43;14.63;;;4.05;;
79308;SDS011;68767;53.078;7.386;2023-06-10T02:08:10;11.27;;;4.82;;
79308;SDS011;68767;53.078;7.386;2023-06-10T02:10:37;7.80;;;3.45;;
79308;SDS011;68767;53.078;7.386;2023-06-10T02:13:04;11.18;;;4.75;;
79308;SDS011;68767;53.078;7.386;2023-06-10T02:15:31;13.38;;;4.38;;
79308;SDS011;68767;53.078;7.386;2023-06-10T02:17:59;14.77;;;4.90;;
79308;SDS011;68767;53.078;7.386;2023-06-10T02:20:27;8.35;;;3.75;;
79308;SDS011;68767;53.078;7.386;2023-06-10T02:22:54;10.07;;;4.65;;
79308;SDS011;68767;53.078;7.386;2023-06-10T02:25:20;9.00;;;4.38;;
79308;SDS011;68767;53.078;7.386;2023-06-10T02:27:47;11.30;;;4.93;;
79308;SDS011;68767;53.078;7.386;2023-06-10T02:30:14;10.23;;;3.97;;
79308;SDS011;68767;53.078;7.386;2023-06-10T02:32:42;11.75;;;4.25;;
79308;SDS011;68767;53.078;7.386;2023-06-10T02:35:09;10.48;;;4.97;;
79308;SDS011;68767;53.078;7.386;2023-06-10T02:37:39;9.95;;;4.70;;
79308;SDS011;68767;53.078;7.386;2023-06-10T02:40:07;10.60;;;4.70;;
79308;SDS011;68767;53.078;7.386;2023-06-10T02:42:35;11.43;;;4.78;;
79308;SDS011;68767;53.078;7.386;2023-06-10T02:45:03;12.27;;;4.10;;
79308;SDS011;68767;53.078;7.386;2023-06-10T02:47:37;12.82;;;4.25;;
79308;SDS011;68767;53.078;7.386;2023-06-10T02:50:06;9.65;;;4.85;;
79308;SDS011;68767;53.078;7.386;2023-06-10T02:52:41;15.02;;;4.65;;
79308;SDS011;68767;53.078;7.386;2023-06-10T02:55:09;10.38;;;4.63;;
79308;SDS011;68767;53.078;7.386;2023-06-10T02:57:39;15.57;;;4.95;;
79308;SDS011;68767;53.078;7.386;2023-06-10T03:00:07;16.20;;;4.75;;
79308;SDS011;68767;53.078;7.386;2023-06-10T03:02:39;13.30;;;5.13;;
79308;SDS011;68767;53.078;7.386;2023-06-10T03:05:12;13.13;;;4.75;;
79308;SDS011;68767;53.078;7.386;2023-06-10T03:07:43;16.17;;;4.80;;
79308;SDS011;68767;53.078;7.386;2023-06-10T03:10:10;15.30;;;4.35;;
79308;SDS011;68767;53.078;7.386;2023-06-10T03:12:39;12.43;;;4.88;;
79308;SDS011;68767;53.078;7.386;2023-06-10T03:15:07;11.27;;;5.18;;
79308;SDS011;68767;53.078;7.386;2023-06-10T03:17:35;10.02;;;4.90;;
79308;SDS011;68767;53.078;7.386;2023-06-10T03:20:02;16.73;;;5.63;;
79308;SDS011;68767;53.078;7.386;2023-06-10T03:22:33;11.18;;;4.63;;
79308;SDS011;68767;53.078;7.386;2023-06-10T03:25:05;15.45;;;5.35;;
79308;SDS011;68767;53.078;7.386;2023-06-10T03:27:33;9.73;;;4.68;;
79308;SDS011;68767;53.078;7.386;2023-06-10T03:30:06;12.05;;;5.47;;
79308;SDS011;68767;53.078;7.386;2023-06-10T03:32:33;13.52;;;5.10;;
79308;SDS011;68767;53.078;7.386;2023-06-10T03:35:00;12.40;;;5.05;;
79308;SDS011;68767;53.078;7.386;2023-06-10T03:37:29;11.38;;;5.60;;
79308;SDS011;68767;53.078;7.386;2023-06-10T03:39:56;13.10;;;5.60;;
79308;SDS011;68767;53.078;7.386;2023-06-10T03:42:23;14.32;;;5.82;;
79308;SDS011;68767;53.078;7.386;2023-06-10T03:44:51;16.40;;;5.20;;
79308;SDS011;68767;53.078;7.386;2023-06-10T03:47:18;13.38;;;6.15;;
79308;SDS011;68767;53.078;7.386;2023-06-10T03:49:45;15.00;;;5.53;;
79308;SDS011;68767;53.078;7.386;2023-06-10T03:52:12;15.43;;;5.75;;
79308;SDS011;68767;53.078;7.386;2023-06-10T03:54:39;13.25;;;5.22;;
79308;SDS011;68767;53.078;7.386;2023-06-10T03:57:06;12.60;;;5.60;;
79308;SDS011;68767;53.078;7.386;2023-06-10T03:59:33;16.23;;;5.50;;
79308;SDS011;68767;53.078;7.386;2023-06-10T04:02:00;11.73;;;5.43;;
79308;SDS011;68767;53.078;7.386;2023-06-10T04:04:28;13.90;;;5.25;;
79308;SDS011;68767;53.078;7.386;2023-06-10T04:06:54;21.73;;;5.93;;
79308;SDS011;68767;53.078;7.386;2023-06-10T04:09:21;12.45;;;4.93;;
79308;SDS011;68767;53.078;7.386;2023-06-10T04:11:48;13.10;;;5.78;;
79308;SDS011;68767;53.078;7.386;2023-06-10T04:14:16;15.93;;;7.05;;
79308;SDS011;68767;53.078;7.386;2023-06-10T04:16:43;17.10;;;6.25;;
79308;SDS011;68767;53.078;7.386;2023-06-10T04:19:11;13.98;;;5.68;;
79308;SDS011;68767;53.078;7.386;2023-06-10T04:21:38;12.98;;;5.93;;
79308;SDS011;68767;53.078;7.386;2023-06-10T04:24:05;17.80;;;6.68;;
79308;SDS011;68767;53.078;7.386;2023-06-10T04:26:34;18.00;;;6.50;;
79308;SDS011;68767;53.078;7.386;2023-06-10T04:29:03;14.43;;;5.97;;
79308;SDS011;68767;53.078;7.386;2023-06-10T04:31:30;19.02;;;6.15;;
79308;SDS011;68767;53.078;7.386;2023-06-10T04:33:59;22.17;;;7.05;;
79308;SDS011;68767;53.078;7.386;2023-06-10T04:36:28;19.30;;;7.28;;
79308;SDS011;68767;53.078;7.386;2023-06-10T04:38:56;16.65;;;6.75;;
79308;SDS011;68767;53.078;7.386;2023-06-10T04:41:23;16.38;;;7.95;;
79308;SDS011;68767;53.078;7.386;2023-06-10T04:43:51;15.50;;;6.38;;
79308;SDS011;68767;53.078;7.386;2023-06-10T04:46:18;17.75;;;7.63;;
79308;SDS011;68767;53.078;7.386;2023-06-10T04:48:45;17.35;;;7.10;;
79308;SDS011;68767;53.078;7.386;2023-06-10T04:51:13;19.42;;;8.93;;
79308;SDS011;68767;53.078;7.386;2023-06-10T04:53:40;23.42;;;8.35;;
79308;SDS011;68767;53.078;7.386;2023-06-10T04:56:07;22.58;;;8.52;;
79308;SDS011;68767;53.078;7.386;2023-06-10T04:58:34;20.27;;;8.60;;
79308;SDS011;68767;53.078;7.386;2023-06-10T05:01:01;17.33;;;8.65;;
79308;SDS011;68767;53.078;7.386;2023-06-10T05:03:28;16.90;;;8.73;;
79308;SDS011;68767;53.078;7.386;2023-06-10T05:05:55;17.85;;;7.70;;
79308;SDS011;68767;53.078;7.386;2023-06-10T05:08:22;19.17;;;9.05;;
79308;SDS011;68767;53.078;7.386;2023-06-10T05:10:49;21.15;;;10.00;;
79308;SDS011;68767;53.078;7.386;2023-06-10T05:13:16;18.55;;;8.98;;
79308;SDS011;68767;53.078;7.386;2023-06-10T05:15:44;20.63;;;8.95;;
79308;SDS011;68767;53.078;7.386;2023-06-10T05:18:12;18.48;;;8.57;;
79308;SDS011;68767;53.078;7.386;2023-06-10T05:20:39;18.55;;;8.63;;
79308;SDS011;68767;53.078;7.386;2023-06-10T05:23:06;25.23;;;9.18;;
79308;SDS011;68767;53.078;7.386;2023-06-10T05:25:33;17.52;;;8.48;;
79308;SDS011;68767;53.078;7.386;2023-06-10T05:28:00;16.17;;;7.95;;
79308;SDS011;68767;53.078;7.386;2023-06-10T05:30:27;17.15;;;8.68;;
79308;SDS011;68767;53.078;7.386;2023-06-10T05:32:54;20.67;;;8.88;;
79308;SDS011;68767;53.078;7.386;2023-06-10T05:35:22;20.73;;;9.27;;
79308;SDS011;68767;53.078;7.386;2023-06-10T05:37:49;20.02;;;8.30;;
79308;SDS011;68767;53.078;7.386;2023-06-10T05:40:16;17.27;;;7.95;;
79308;SDS011;68767;53.078;7.386;2023-06-10T05:42:43;16.52;;;8.52;;
79308;SDS011;68767;53.078;7.386;2023-06-10T05:45:10;17.80;;;8.13;;
79308;SDS011;68767;53.078;7.386;2023-06-10T05:47:37;16.10;;;7.68;;
79308;SDS011;68767;53.078;7.386;2023-06-10T05:50:04;16.30;;;7.68;;
79308;SDS011;68767;53.078;7.386;2023-06-10T05:52:36;18.25;;;7.78;;
79308;SDS011;68767;53.078;7.386;2023-06-10T05:55:03;20.55;;;7.82;;
79308;SDS011;68767;53.078;7.386;2023-06-10T05:57:30;16.27;;;6.75;;
79308;SDS011;68767;53.078;7.386;2023-06-10T05:59:57;15.70;;;6.60;;
79308;SDS011;68767;53.078;7.386;2023-06-10T06:02:24;13.20;;;6.70;;
79308;SDS011;68767;53.078;7.386;2023-06-10T06:04:51;18.75;;;7.28;;
79308;SDS011;68767;53.078;7.386;2023-06-10T06:07:18;18.17;;;7.07;;
79308;SDS011;68767;53.078;7.386;2023-06-10T06:09:47;19.63;;;7.70;;
79308;SDS011;68767;53.078;7.386;2023-06-10T06:12:14;12.30;;;6.30;;
79308;SDS011;68767;53.078;7.386;2023-06-10T06:14:41;17.50;;;7.95;;
79308;SDS011;68767;53.078;7.386;2023-06-10T06:17:08;17.92;;;7.07;;
79308;SDS011;68767;53.078;7.386;2023-06-10T06:19:35;15.30;;;8.10;;
79308;SDS011;68767;53.078;7.386;2023-06-10T06:22:02;15.38;;;6.65;;
79308;SDS011;68767;53.078;7.386;2023-06-10T06:24:29;17.55;;;7.55;;
79308;SDS011;68767;53.078;7.386;2023-06-10T06:26:56;15.80;;;7.70;;
79308;SDS011;68767;53.078;7.386;2023-06-10T06:29:23;14.68;;;7.13;;
79308;SDS011;68767;53.078;7.386;2023-06-10T06:31:50;15.20;;;7.38;;
79308;SDS011;68767;53.078;7.386;2023-06-10T06:34:17;16.30;;;7.15;;
79308;SDS011;68767;53.078;7.386;2023-06-10T06:36:44;14.27;;;6.53;;
79308;SDS011;68767;53.078;7.386;2023-06-10T06:39:11;16.92;;;6.90;;
79308;SDS011;68767;53.078;7.386;2023-06-10T06:41:38;15.80;;;6.22;;
79308;SDS011;68767;53.078;7.386;2023-06-10T06:44:05;12.43;;;6.43;;
79308;SDS011;68767;53.078;7.386;2023-06-10T06:46:37;14.32;;;6.53;;
79308;SDS011;68767;53.078;7.386;2023-06-10T06:49:03;13.25;;;6.15;;
79308;SDS011;68767;53.078;7.386;2023-06-10T06:51:30;17.13;;;6.70;;
79308;SDS011;68767;53.078;7.386;2023-06-10T06:53:57;15.70;;;7.15;;
79308;SDS011;68767;53.078;7.386;2023-06-10T06:56:32;12.35;;;6.30;;
79308;SDS011;68767;53.078;7.386;2023-06-10T06:58:59;13.35;;;6.43;;
79308;SDS011;68767;53.078;7.386;2023-06-10T07:01:26;14.90;;;5.75;;
79308;SDS011;68767;53.078;7.386;2023-06-10T07:03:53;13.77;;;5.97;;
79308;SDS011;68767;53.078;7.386;2023-06-10T07:06:20;14.68;;;5.90;;
79308;SDS011;68767;53.078;7.386;2023-06-10T07:08:48;14.38;;;5.82;;
79308;SDS011;68767;53.078;7.386;2023-06-10T07:11:15;11.40;;;5.30;;
79308;SDS011;68767;53.078;7.386;2023-06-10T07:13:44;11.73;;;5.07;;
79308;SDS011;68767;53.078;7.386;2023-06-10T07:16:11;13.43;;;4.95;;
79308;SDS011;68767;53.078;7.386;2023-06-10T07:18:38;13.52;;;5.90;;
79308;SDS011;68767;53.078;7.386;2023-06-10T07:21:05;15.45;;;5.05;;
79308;SDS011;68767;53.078;7.386;2023-06-10T07:23:32;11.75;;;5.20;;
79308;SDS011;68767;53.078;7.386;2023-06-10T07:25:59;12.27;;;4.75;;
79308;SDS011;68767;53.078;7.386;2023-06-10T07:28:26;12.65;;;4.68;;
79308;SDS011;68767;53.078;7.386;2023-06-10T07:30:53;10.27;;;4.65;;
79308;SDS011;68767;53.078;7.386;2023-06-10T07:33:20;16.88;;;6.00;;
79308;SDS011;68767;53.078;7.386;2023-06-10T07:35:47;12.45;;;4.97;;
79308;SDS011;68767;53.078;7.386;2023-06-10T07:38:14;13.20;;;4.82;;
79308;SDS011;68767;53.078;7.386;2023-06-10T07:40:40;10.88;;;4.72;;
79308;SDS011;68767;53.078;7.386;2023-06-10T07:43:08;15.95;;;5.80;;
79308;SDS011;68767;53.078;7.386;2023-06-10T07:45:34;17.08;;;4.95;;
79308;SDS011;68767;53.078;7.386;2023-06-10T07:48:01;13.80;;;4.70;;
79308;SDS011;68767;53.078;7.386;2023-06-10T07:50:28;14.65;;;5.20;;
79308;SDS011;68767;53.078;7.386;2023-06-10T07:52:55;13.85;;;4.50;;
79308;SDS011;68767;53.078;7.386;2023-06-10T07:55:23;8.85;;;4.47;;
79308;SDS011;68767;53.078;7.386;2023-06-10T07:57:52;12.55;;;4.55;;
79308;SDS011;68767;53.078;7.386;2023-06-10T08:00:20;12.90;;;5.35;;
79308;SDS011;68767;53.078;7.386;2023-06-10T08:02:47;12.63;;;4.90;;
79308;SDS011;68767;53.078;7.386;2023-06-10T08:05:14;10.05;;;4.15;;
79308;SDS011;68767;53.078;7.386;2023-06-10T08:07:41;11.95;;;4.63;;
79308;SDS011;68767;53.078;7.386;2023-06-10T08:10:09;12.38;;;4.82;;
79308;SDS011;68767;53.078;7.386;2023-06-10T08:12:36;10.48;;;4.65;;
79308;SDS011;68767;53.078;7.386;2023-06-10T08:15:03;15.15;;;4.90;;
79308;SDS011;68767;53.078;7.386;2023-06-10T08:17:31;10.60;;;4.20;;
79308;SDS011;68767;53.078;7.386;2023-06-10T08:19:58;7.50;;;4.15;;
79308;SDS011;68767;53.078;7.386;2023-06-10T08:22:25;12.63;;;4.50;;
79308;SDS011;68767;53.078;7.386;2023-06-10T08:24:51;11.98;;;4.97;;
79308;SDS011;68767;53.078;7.386;2023-06-10T08:27:18;15.90;;;5.13;;
79308;SDS011;68767;53.078;7.386;2023-06-10T08:29:45;10.95;;;4.45;;
79308;SDS011;68767;53.078;7.386;2023-06-10T08:32:12;9.98;;;4.32;;
79308;SDS011;68767;53.078;7.386;2023-06-10T08:34:39;13.05;;;4.88;;
79308;SDS011;68767;53.078;7.386;2023-06-10T08:37:06;9.07;;;4.05;;
79308;SDS011;68767;53.078;7.386;2023-06-10T08:39:34;12.02;;;4.43;;
79308;SDS011;68767;53.078;7.386;2023-06-10T08:44:54;14.50;;;4.50;;
79308;SDS011;68767;53.078;7.386;2023-06-10T08:47:23;11.27;;;5.22;;
79308;SDS011;68767;53.078;7.386;2023-06-10T08:49:51;7.40;;;4.20;;
79308;SDS011;68767;53.078;7.386;2023-06-10T08:52:20;11.80;;;4.75;;
79308;SDS011;68767;53.078;7.386;2023-06-10T08:54:49;12.13;;;4.75;;
79308;SDS011;68767;53.078;7.386;2023-06-10T08:57:19;10.27;;;4.45;;
79308;SDS011;68767;53.078;7.386;2023-06-10T08:59:48;13.00;;;4.60;;
79308;SDS011;68767;53.078;7.386;2023-06-10T09:02:15;14.73;;;4.35;;
79308;SDS011;68767;53.078;7.386;2023-06-10T09:04:46;10.05;;;4.68;;
79308;SDS011;68767;53.078;7.386;2023-06-10T09:07:17;11.80;;;4.88;;
79308;SDS011;68767;53.078;7.386;2023-06-10T09:09:45;11.52;;;5.50;;
79308;SDS011;68767;53.078;7.386;2023-06-10T09:12:12;9.95;;;4.63;;
79308;SDS011;68767;53.078;7.386;2023-06-10T09:14:41;14.65;;;4.40;;
79308;SDS011;68767;53.078;7.386;2023-06-10T09:17:09;9.80;;;4.53;;
79308;SDS011;68767;53.078;7.386;2023-06-10T09:19:36;12.02;;;4.95;;
79308;SDS011;68767;53.078;7.386;2023-06-10T09:22:05;10.38;;;4.43;;
79308;SDS011;68767;53.078;7.386;2023-06-10T09:24:32;14.45;;;5.05;;
79308;SDS011;68767;53.078;7.386;2023-06-10T09:27:06;9.23;;;4.45;;
79308;SDS011;68767;53.078;7.386;2023-06-10T09:32:17;10.80;;;4.20;;
79308;SDS011;68767;53.078;7.386;2023-06-10T09:34:45;15.20;;;3.95;;
79308;SDS011;68767;53.078;7.386;2023-06-10T09:37:13;9.95;;;4.47;;
79308;SDS011;68767;53.078;7.386;2023-06-10T09:40:02;11.52;;;4.68;;
79308;SDS011;68767;53.078;7.386;2023-06-10T09:42:35;9.68;;;3.92;;
79308;SDS011;68767;53.078;7.386;2023-06-10T09:45:03;10.75;;;4.15;;
79308;SDS011;68767;53.078;7.386;2023-06-10T09:47:31;12.15;;;4.97;;
79308;SDS011;68767;53.078;7.386;2023-06-10T09:49:58;12.15;;;4.38;;
79308;SDS011;68767;53.078;7.386;2023-06-10T09:52:27;9.85;;;3.80;;
79308;SDS011;68767;53.078;7.386;2023-06-10T09:54:58;10.55;;;4.10;;
79308;SDS011;68767;53.078;7.386;2023-06-10T09:57:32;13.60;;;4.22;;
79308;SDS011;68767;53.078;7.386;2023-06-10T10:00:06;8.68;;;4.28;;
79308;SDS011;68767;53.078;7.386;2023-06-10T10:03:11;12.38;;;5.03;;
79308;SDS011;68767;53.078;7.386;2023-06-10T10:05:33;16.50;;;4.68;;
79308;SDS011;68767;53.078;7.386;2023-06-10T10:08:00;12.98;;;4.80;;
79308;SDS011;68767;53.078;7.386;2023-06-10T10:10:27;8.52;;;4.50;;
79308;SDS011;68767;53.078;7.386;2023-06-10T10:12:54;11.80;;;4.50;;
79308;SDS011;68767;53.078;7.386;2023-06-10T10:15:28;13.70;;;4.25;;
79308;SDS011;68767;53.078;7.386;2023-06-10T10:18:00;8.57;;;4.18;;
79308;SDS011;68767;53.078;7.386;2023-06-10T10:20:37;12.75;;;4.60;;
79308;SDS011;68767;53.078;7.386;2023-06-10T10:23:13;9.35;;;3.85;;
79308;SDS011;68767;53.078;7.386;2023-06-10T10:28:10;13.40;;;4.10;;
79308;SDS011;68767;53.078;7.386;2023-06-10T10:30:42;9.93;;;3.75;;
79308;SDS011;68767;53.078;7.386;2023-06-10T10:36:24;6.95;;;3.53;;
79308;SDS011;68767;53.078;7.386;2023-06-10T10:38:51;9.77;;;4.13;;
79308;SDS011;68767;53.078;7.386;2023-06-10T10:41:19;11.20;;;4.30;;
79308;SDS011;68767;53.078;7.386;2023-06-10T10:43:47;7.53;;;3.88;;
79308;SDS011;68767;53.078;7.386;2023-06-10T10:46:16;10.00;;;4.03;;
79308;SDS011;68767;53.078;7.386;2023-06-10T10:48:44;7.88;;;3.35;;
79308;SDS011;68767;53.078;7.386;2023-06-10T10:51:11;7.50;;;3.63;;
79308;SDS011;68767;53.078;7.386;2023-06-10T10:53:39;11.20;;;3.80;;
79308;SDS011;68767;53.078;7.386;2023-06-10T10:56:07;7.80;;;3.38;;
79308;SDS011;68767;53.078;7.386;2023-06-10T10:58:40;7.38;;;4.05;;
79308;SDS011;68767;53.078;7.386;2023-06-10T11:01:13;8.32;;;3.85;;
79308;SDS011;68767;53.078;7.386;2023-06-10T11:03:44;10.43;;;4.05;;
79308;SDS011;68767;53.078;7.386;2023-06-10T11:06:15;10.35;;;4.05;;
79308;SDS011;68767;53.078;7.386;2023-06-10T11:08:45;8.35;;;3.65;;
79308;SDS011;68767;53.078;7.386;2023-06-10T11:11:18;10.68;;;3.90;;
79308;SDS011;68767;53.078;7.386;2023-06-10T11:16:59;6.82;;;3.70;;
79308;SDS011;68767;53.078;7.386;2023-06-10T11:19:34;10.38;;;3.95;;
79308;SDS011;68767;53.078;7.386;2023-06-10T11:22:08;10.63;;;3.90;;
79308;SDS011;68767;53.078;7.386;2023-06-10T11:24:36;8.70;;;3.58;;
79308;SDS011;68767;53.078;7.386;2023-06-10T11:29:57;9.60;;;3.95;;
79308;SDS011;68767;53.078;7.386;2023-06-10T11:32:43;14.07;;;4.47;;
79308;SDS011;68767;53.078;7.386;2023-06-10T11:35:11;9.18;;;3.65;;
79308;SDS011;68767;53.078;7.386;2023-06-10T11:37:38;7.63;;;3.30;;
79308;SDS011;68767;53.078;7.386;2023-06-10T11:40:06;10.07;;;3.75;;
79308;SDS011;68767;53.078;7.386;2023-06-10T11:42:33;8.43;;;3.75;;
79308;SDS011;68767;53.078;7.386;2023-06-10T11:45:06;9.40;;;3.83;;
79308;SDS011;68767;53.078;7.386;2023-06-10T11:50:02;8.88;;;3.40;;
79308;SDS011;68767;53.078;7.386;2023-06-10T11:52:30;8.45;;;3.30;;
79308;SDS011;68767;53.078;7.386;2023-06-10T11:55:00;9.65;;;3.45;;
79308;SDS011;68767;53.078;7.386;2023-06-10T11:57:27;8.07;;;3.80;;
79308;SDS011;68767;53.078;7.386;2023-06-10T11:59:54;8.23;;;3.47;;
79308;SDS011;68767;53.078;7.386;2023-06-10T12:02:20;8.15;;;3.10;;
79308;SDS011;68767;53.078;7.386;2023-06-10T12:04:49;8.90;;;3.25;;
79308;SDS011;68767;53.078;7.386;2023-06-10T12:07:19;12.20;;;3.83;;
79308;SDS011;68767;53.078;7.386;2023-06-10T12:09:46;7.97;;;3.65;;
79308;SDS011;68767;53.078;7.386;2023-06-10T12:12:13;8.63;;;3.70;;
79308;SDS011;68767;53.078;7.386;2023-06-10T12:14:57;9.52;;;3.22;;
79308;SDS011;68767;53.078;7.386;2023-06-10T12:19:59;8.18;;;3.25;;
79308;SDS011;68767;53.078;7.386;2023-06-10T12:22:27;7.13;;;3.50;;
79308;SDS011;68767;53.078;7.386;2023-06-10T12:25:03;6.93;;;3.33;;
79308;SDS011;68767;53.078;7.386;2023-06-10T12:27:33;9.23;;;3.22;;
79308;SDS011;68767;53.078;7.386;2023-06-10T12:30:02;10.38;;;3.50;;
79308;SDS011;68767;53.078;7.386;2023-06-10T12:35:03;10.02;;;4.20;;
79308;SDS011;68767;53.078;7.386;2023-06-10T12:37:31;9.95;;;3.55;;
79308;SDS011;68767;53.078;7.386;2023-06-10T12:40:04;11.43;;;4.13;;
79308;SDS011;68767;53.078;7.386;2023-06-10T12:42:32;8.80;;;3.38;;
79308;SDS011;68767;53.078;7.386;2023-06-10T12:45:03;8.43;;;3.15;;
79308;SDS011;68767;53.078;7.386;2023-06-10T12:47:35;6.78;;;3.15;;
79308;SDS011;68767;53.078;7.386;2023-06-10T12:50:05;19.08;;;4.75;;
79308;SDS011;68767;53.078;7.386;2023-06-10T12:52:32;13.70;;;4.10;;
79308;SDS011;68767;53.078;7.386;2023-06-10T12:54:59;7.80;;;3.33;;
79308;SDS011;68767;53.078;7.386;2023-06-10T12:57:27;10.00;;;3.50;;
79308;SDS011;68767;53.078;7.386;2023-06-10T12:59:54;11.30;;;3.42;;
79308;SDS011;68767;53.078;7.386;2023-06-10T13:02:23;6.97;;;3.03;;
79308;SDS011;68767;53.078;7.386;2023-06-10T13:04:50;7.65;;;3.20;;
79308;SDS011;68767;53.078;7.386;2023-06-10T13:07:17;8.40;;;3.15;;
79308;SDS011;68767;53.078;7.386;2023-06-10T13:09:45;7.43;;;3.05;;
79308;SDS011;68767;53.078;7.386;2023-06-10T13:12:15;9.30;;;3.38;;
79308;SDS011;68767;53.078;7.386;2023-06-10T13:14:52;8.27;;;3.47;;
79308;SDS011;68767;53.078;7.386;2023-06-10T13:17:20;10.13;;;3.08;;
79308;SDS011;68767;53.078;7.386;2023-06-10T13:19:47;7.13;;;3.17;;
79308;SDS011;68767;53.078;7.386;2023-06-10T13:22:15;8.07;;;3.25;;
79308;SDS011;68767;53.078;7.386;2023-06-10T13:24:42;11.55;;;3.17;;
79308;SDS011;68767;53.078;7.386;2023-06-10T13:27:10;8.57;;;3.55;;
79308;SDS011;68767;53.078;7.386;2023-06-10T13:29:37;6.90;;;3.10;;
79308;SDS011;68767;53.078;7.386;2023-06-10T13:32:04;6.03;;;2.80;;
79308;SDS011;68767;53.078;7.386;2023-06-10T13:34:31;4.60;;;2.80;;
79308;SDS011;68767;53.078;7.386;2023-06-10T13:36:58;10.55;;;2.88;;
79308;SDS011;68767;53.078;7.386;2023-06-10T13:39:25;9.65;;;3.17;;
79308;SDS011;68767;53.078;7.386;2023-06-10T13:41:53;8.52;;;3.25;;
79308;SDS011;68767;53.078;7.386;2023-06-10T13:44:20;8.35;;;2.67;;
79308;SDS011;68767;53.078;7.386;2023-06-10T13:46:47;7.78;;;3.38;;
79308;SDS011;68767;53.078;7.386;2023-06-10T13:49:15;17.40;;;3.30;;
79308;SDS011;68767;53.078;7.386;2023-06-10T13:51:42;8.90;;;3.03;;
79308;SDS011;68767;53.078;7.386;2023-06-10T13:54:09;6.60;;;2.80;;
79308;SDS011;68767;53.078;7.386;2023-06-10T13:56:37;12.27;;;2.95;;
79308;SDS011;68767;53.078;7.386;2023-06-10T13:59:05;8.50;;;3.00;;
79308;SDS011;68767;53.078;7.386;2023-06-10T14:01:32;7.20;;;2.63;;
79308;SDS011;68767;53.078;7.386;2023-06-10T14:03:59;7.20;;;2.92;;
79308;SDS011;68767;53.078;7.386;2023-06-10T14:06:27;7.90;;;3.00;;
79308;SDS011;68767;53.078;7.386;2023-06-10T14:08:54;7.65;;;3.20;;
79308;SDS011;68767;53.078;7.386;2023-06-10T14:11:21;5.95;;;2.92;;
79308;SDS011;68767;53.078;7.386;2023-06-10T14:13:48;6.82;;;2.70;;
79308;SDS011;68767;53.078;7.386;2023-06-10T14:16:15;5.90;;;2.85;;
79308;SDS011;68767;53.078;7.386;2023-06-10T14:18:42;7.53;;;3.08;;
79308;SDS011;68767;53.078;7.386;2023-06-10T14:21:09;7.10;;;2.75;;
79308;SDS011;68767;53.078;7.386;2023-06-10T14:23:36;7.78;;;2.90;;
79308;SDS011;68767;53.078;7.386;2023-06-10T14:26:03;9.85;;;3.00;;
79308;SDS011;68767;53.078;7.386;2023-06-10T14:28:29;6.45;;;2.97;;
79308;SDS011;68767;53.078;7.386;2023-06-10T14:30:57;8.18;;;3.00;;
79308;SDS011;68767;53.078;7.386;2023-06-10T14:33:24;8.02;;;2.67;;
79308;SDS011;68767;53.078;7.386;2023-06-10T14:35:51;6.93;;;3.10;;
79308;SDS011;68767;53.078;7.386;2023-06-10T14:38:18;7.28;;;2.75;;
79308;SDS011;68767;53.078;7.386;2023-06-10T14:40:45;7.25;;;2.80;;
79308;SDS011;68767;53.078;7.386;2023-06-10T14:43:12;5.90;;;2.80;;
79308;SDS011;68767;53.078;7.386;2023-06-10T14:45:39;8.52;;;3.17;;
79308;SDS011;68767;53.078;7.386;2023-06-10T14:48:07;6.60;;;2.80;;
79308;SDS011;68767;53.078;7.386;2023-06-10T14:50:34;5.25;;;2.60;;
79308;SDS011;68767;53.078;7.386;2023-06-10T14:53:02;9.02;;;3.03;;
79308;SDS011;68767;53.078;7.386;2023-06-10T14:55:29;9.18;;;2.92;;
79308;SDS011;68767;53.078;7.386;2023-06-10T14:57:55;6.80;;;2.65;;
79308;SDS011;68767;53.078;7.386;2023-06-10T15:00:24;7.13;;;2.83;;
79308;SDS011;68767;53.078;7.386;2023-06-10T15:02:52;22.77;;;6.65;;
79308;SDS011;68767;53.078;7.386;2023-06-10T15:05:20;22.27;;;6.90;;
79308;SDS011;68767;53.078;7.386;2023-06-10T15:07:48;9.07;;;2.80;;
79308;SDS011;68767;53.078;7.386;2023-06-10T15:10:15;8.68;;;2.70;;
79308;SDS011;68767;53.078;7.386;2023-06-10T15:12:44;6.65;;;3.10;;
79308;SDS011;68767;53.078;7.386;2023-06-10T15:15:11;7.22;;;2.83;;
79308;SDS011;68767;53.078;7.386;2023-06-10T15:17:38;6.82;;;2.92;;
79308;SDS011;68767;53.078;7.386;2023-06-10T15:20:05;5.45;;;2.92;;